createdAt,value
2018-06-03T00:02:14.774Z,79.90
2018-06-03T00:04:43.244Z,79.84
2018-06-03T00:07:12.345Z,79.85
2018-06-03T00:09:40.728Z,79.91
2018-06-03T00:12:09.001Z,80.13
2018-06-03T00:14:37.375Z,79.98
2018-06-03T00:17:05.709Z,80.03
2018-06-03T00:19:34.030Z,80.04
2018-06-03T00:22:02.389Z,79.88
2018-06-03T00:24:30.825Z,79.74
2018-06-03T00:26:59.198Z,80.23
2018-06-03T00:29:27.607Z,80.32
2018-06-03T00:31:55.954Z,80.31
2018-06-03T00:34:24.360Z,80.32
2018-06-03T00:36:53.587Z,80.41
2018-06-03T00:39:21.944Z,80.54
2018-06-03T00:41:50.290Z,80.54
2018-06-03T00:44:18.715Z,80.52
2018-06-03T00:46:47.090Z,80.66
2018-06-03T00:49:15.427Z,80.73
2018-06-03T00:51:44.875Z,80.74
2018-06-03T00:54:13.207Z,80.59
2018-06-03T00:56:54.721Z,80.53
2018-06-03T00:59:23.100Z,80.41
2018-06-03T01:01:51.537Z,80.25
2018-06-03T01:04:20.529Z,80.28
2018-06-03T01:06:48.909Z,80.31
2018-06-03T01:09:17.312Z,80.59
2018-06-03T01:11:46.209Z,80.73
2018-06-03T01:14:14.509Z,80.69
2018-06-03T01:16:42.842Z,80.79
2018-06-03T01:19:11.368Z,80.90
2018-06-03T01:21:39.732Z,80.67
2018-06-03T01:24:08.152Z,80.57
2018-06-03T01:26:37.349Z,80.47
2018-06-03T01:29:06.594Z,80.32
2018-06-03T01:31:34.904Z,80.77
2018-06-03T01:34:03.589Z,80.50
2018-06-03T01:36:31.997Z,80.26
2018-06-03T01:39:00.339Z,80.12
2018-06-03T01:41:29.051Z,80.02
2018-06-03T01:43:57.438Z,80.18
2018-06-03T01:46:25.801Z,80.42
2018-06-03T01:48:54.983Z,80.49
2018-06-03T01:51:23.333Z,80.63
2018-06-03T01:53:51.709Z,80.84
2018-06-03T01:56:20.203Z,81.03
2018-06-03T01:58:48.836Z,81.17
2018-06-03T02:01:17.316Z,81.29
2018-06-03T02:03:45.681Z,81.58
2018-06-03T02:06:14.834Z,81.70
2018-06-03T02:08:43.162Z,81.70
2018-06-03T02:11:11.986Z,81.62
2018-06-03T02:13:40.313Z,81.55
2018-06-03T02:16:08.620Z,81.52
2018-06-03T02:18:37.591Z,81.78
2018-06-03T02:21:05.887Z,82.07
2018-06-03T02:23:34.214Z,82.50
2018-06-03T02:26:02.562Z,82.97
2018-06-03T02:28:30.956Z,83.19
2018-06-03T02:30:59.333Z,83.29
2018-06-03T02:33:27.752Z,83.34
2018-06-03T02:35:56.138Z,83.30
2018-06-03T02:38:24.542Z,83.43
2018-06-03T02:40:53.048Z,83.31
2018-06-03T02:43:21.500Z,83.37
2018-06-03T02:45:49.871Z,83.36
2018-06-03T02:48:18.260Z,83.34
2018-06-03T02:50:46.661Z,83.30
2018-06-03T02:53:14.993Z,83.10
2018-06-03T02:55:43.338Z,82.93
2018-06-03T02:58:11.802Z,82.72
2018-06-03T03:00:40.128Z,82.51
2018-06-03T03:03:09.404Z,82.25
2018-06-03T03:05:37.721Z,82.41
2018-06-03T03:08:06.057Z,82.36
2018-06-03T03:10:35.246Z,82.12
2018-06-03T03:13:03.574Z,81.95
2018-06-03T03:15:31.937Z,82.19
2018-06-03T03:18:00.302Z,82.52
2018-06-03T03:20:28.652Z,82.58
2018-06-03T03:22:57.059Z,82.71
2018-06-03T03:25:26.262Z,82.87
2018-06-03T03:27:54.587Z,82.87
2018-06-03T03:30:22.974Z,82.77
2018-06-03T03:32:52.152Z,82.71
2018-06-03T03:35:20.562Z,82.85
2018-06-03T03:37:48.927Z,82.73
2018-06-03T03:40:17.689Z,82.58
2018-06-03T03:42:46.059Z,82.48
2018-06-03T03:45:14.447Z,82.48
2018-06-03T03:47:42.857Z,82.26
2018-06-03T03:50:11.566Z,82.27
2018-06-03T03:52:39.873Z,82.20
2018-06-03T03:55:09.785Z,82.05
2018-06-03T03:57:38.109Z,81.84
2018-06-03T04:00:06.433Z,82.00
2018-06-03T04:02:35.547Z,82.16
2018-06-03T04:05:04.214Z,82.13
2018-06-03T04:07:32.532Z,82.03
2018-06-03T04:10:00.869Z,82.05
2018-06-03T04:12:29.243Z,82.08
2018-06-03T04:14:57.579Z,82.02
2018-06-03T04:17:25.955Z,81.96
2018-06-03T04:19:54.286Z,81.68
2018-06-03T04:22:22.638Z,81.85
2018-06-03T04:24:51.249Z,81.84
2018-06-03T04:27:19.605Z,81.96
2018-06-03T04:29:48.145Z,81.88
2018-06-03T04:32:16.588Z,81.79
2018-06-03T04:34:44.917Z,81.56
2018-06-03T04:37:13.218Z,81.24
2018-06-03T04:39:41.704Z,81.21
2018-06-03T04:42:10.039Z,81.08
2018-06-03T04:44:38.350Z,80.93
2018-06-03T04:47:07.532Z,80.61
2018-06-03T04:49:35.875Z,80.49
2018-06-03T04:52:04.186Z,80.63
2018-06-03T04:54:32.602Z,80.78
2018-06-03T04:57:00.921Z,80.87
2018-06-03T04:59:29.296Z,81.06
2018-06-03T05:01:57.660Z,81.30
2018-06-03T05:04:25.965Z,81.52
2018-06-03T05:06:54.320Z,81.80
2018-06-03T05:09:22.792Z,81.88
2018-06-03T05:11:51.138Z,82.01
2018-06-03T05:14:19.503Z,82.19
2018-06-03T05:16:48.268Z,82.24
2018-06-03T05:19:17.672Z,82.23
2018-06-03T05:21:46.021Z,82.08
2018-06-03T05:24:14.505Z,82.22
2018-06-03T05:26:42.836Z,82.20
2018-06-03T05:29:11.154Z,82.02
2018-06-03T05:31:39.557Z,81.78
2018-06-03T05:34:07.876Z,81.62
2018-06-03T05:36:36.245Z,81.53
2018-06-03T05:39:04.593Z,81.45
2018-06-03T05:41:32.964Z,80.94
2018-06-03T05:44:01.284Z,80.71
2018-06-03T05:46:29.697Z,80.77
2018-06-03T05:48:58.006Z,80.20
2018-06-03T05:51:26.364Z,80.06
2018-06-03T05:53:55.078Z,79.81
2018-06-03T05:56:23.425Z,79.75
2018-06-03T05:58:51.803Z,79.28
2018-06-03T06:01:20.525Z,78.76
2018-06-03T06:03:48.864Z,78.29
2018-06-03T06:06:17.217Z,78.25
2018-06-03T06:08:47.399Z,77.85
2018-06-03T06:11:15.713Z,77.73
2018-06-03T06:13:44.034Z,77.38
2018-06-03T06:16:12.417Z,77.25
2018-06-03T06:18:40.804Z,77.25
2018-06-03T06:21:09.118Z,76.91
2018-06-03T06:23:38.546Z,76.62
2018-06-03T06:26:06.870Z,76.25
2018-06-03T06:28:35.200Z,76.02
2018-06-03T06:31:04.235Z,76.24
2018-06-03T06:33:32.561Z,76.02
2018-06-03T06:36:00.895Z,75.74
2018-06-03T06:38:29.269Z,74.84
2018-06-03T06:40:57.657Z,74.71
2018-06-03T06:43:26.078Z,74.15
2018-06-03T06:45:54.532Z,74.26
2018-06-03T06:48:22.872Z,73.90
2018-06-03T06:50:51.333Z,73.79
2018-06-03T06:53:20.104Z,73.62
2018-06-03T06:55:48.561Z,73.70
2018-06-03T06:58:17.028Z,73.86
2018-06-03T07:00:45.384Z,73.03
2018-06-03T07:03:13.697Z,72.75
2018-06-03T07:05:42.067Z,72.74
2018-06-03T07:08:10.433Z,72.52
2018-06-03T07:10:38.749Z,72.32
2018-06-03T07:13:07.087Z,72.00
2018-06-03T07:15:35.438Z,71.60
2018-06-03T07:18:03.750Z,70.92
2018-06-03T07:20:32.093Z,70.27
2018-06-03T07:23:01.265Z,70.28
2018-06-03T07:25:29.621Z,70.04
2018-06-03T07:27:57.988Z,69.57
2018-06-03T07:30:27.405Z,69.31
2018-06-03T07:32:55.769Z,69.44
2018-06-03T07:35:24.131Z,69.21
2018-06-03T07:37:52.539Z,68.71
2018-06-03T07:40:20.861Z,68.58
2018-06-03T07:42:49.246Z,68.49
2018-06-03T07:45:17.664Z,68.80
2018-06-03T07:47:45.995Z,68.79
2018-06-03T07:50:14.359Z,68.79
2018-06-03T07:52:43.494Z,68.59
2018-06-03T07:55:11.827Z,68.29
2018-06-03T07:57:40.144Z,67.80
2018-06-03T08:00:08.605Z,67.56
2018-06-03T08:02:36.929Z,68.12
2018-06-03T08:05:05.278Z,68.49
2018-06-03T08:07:34.466Z,68.74
2018-06-03T08:10:02.817Z,69.00
2018-06-03T08:12:31.298Z,69.13
2018-06-03T08:14:59.886Z,69.58
2018-06-03T08:17:28.573Z,69.35
2018-06-03T08:19:57.157Z,69.06
2018-06-03T08:22:26.593Z,68.52
2018-06-03T08:24:54.965Z,68.19
2018-06-03T08:27:23.411Z,68.35
2018-06-03T08:29:51.923Z,68.18
2018-06-03T08:32:20.327Z,68.51
2018-06-03T08:34:48.786Z,68.49
2018-06-03T08:37:17.116Z,69.48
2018-06-03T08:39:45.445Z,69.61
2018-06-03T08:42:13.777Z,69.38
2018-06-03T08:44:42.121Z,69.86
2018-06-03T08:47:10.443Z,70.27
2018-06-03T08:49:38.781Z,70.22
2018-06-03T08:52:07.769Z,70.78
2018-06-03T08:54:36.077Z,70.77
2018-06-03T08:57:04.395Z,70.91
2018-06-03T08:59:32.729Z,71.31
2018-06-03T09:02:01.050Z,71.08
2018-06-03T09:04:29.394Z,70.89
2018-06-03T09:07:30.536Z,71.66
2018-06-03T09:10:00.160Z,71.12
2018-06-03T09:12:29.602Z,71.77
2018-06-03T09:14:59.477Z,71.37
2018-06-03T09:17:28.857Z,70.37
2018-06-03T09:19:58.262Z,70.36
2018-06-03T09:22:27.603Z,70.18
2018-06-03T09:24:56.957Z,69.34
2018-06-03T09:27:26.613Z,69.97
2018-06-03T09:29:56.666Z,71.17
2018-06-03T09:32:26.309Z,70.79
2018-06-03T09:34:55.762Z,69.59
2018-06-03T09:37:25.681Z,69.91
2018-06-03T09:39:55.237Z,70.18
2018-06-03T09:42:24.747Z,70.95
2018-06-03T09:44:54.339Z,70.73
2018-06-03T09:47:23.784Z,70.87
2018-06-03T09:49:53.399Z,70.78
2018-06-03T09:52:23.689Z,70.25
2018-06-03T09:54:53.188Z,70.63
2018-06-03T09:57:22.628Z,69.17
2018-06-03T09:59:53.570Z,68.85
2018-06-03T10:02:23.132Z,69.37
2018-06-03T10:04:52.714Z,68.80
2018-06-03T10:07:22.265Z,69.20
2018-06-03T10:09:51.753Z,68.53
2018-06-03T10:12:21.268Z,69.84
2018-06-03T10:14:50.828Z,69.54
2018-06-03T10:17:20.506Z,68.65
2018-06-03T10:19:50.028Z,69.00
2018-06-03T10:22:19.721Z,68.95
2018-06-03T10:24:49.186Z,68.48
2018-06-03T10:27:19.044Z,67.52
2018-06-03T10:29:55.697Z,67.75
2018-06-03T10:32:25.253Z,67.93
2018-06-03T10:34:54.871Z,68.43
2018-06-03T10:37:25.166Z,68.61
2018-06-03T10:39:55.103Z,68.14
2018-06-03T10:42:24.608Z,67.21
2018-06-03T10:44:54.874Z,67.24
2018-06-03T10:47:24.305Z,67.80
2018-06-03T10:49:53.712Z,67.98
2018-06-03T10:52:23.675Z,68.27
2018-06-03T10:54:53.589Z,68.41
2018-06-03T10:57:26.396Z,67.84
2018-06-03T10:59:55.885Z,67.80
2018-06-03T11:02:25.850Z,68.52
2018-06-03T11:04:55.566Z,69.25
2018-06-03T11:07:25.250Z,68.96
2018-06-03T11:09:54.769Z,70.20
2018-06-03T11:12:24.379Z,70.86
2018-06-03T11:14:53.777Z,71.14
2018-06-03T11:17:26.047Z,70.33
2018-06-03T11:19:55.959Z,69.31
2018-06-03T11:22:25.630Z,69.73
2018-06-03T11:24:55.420Z,69.00
2018-06-03T11:27:25.063Z,70.24
2018-06-03T11:29:54.702Z,69.35
2018-06-03T11:32:25.027Z,69.82
2018-06-03T11:34:54.634Z,69.21
2018-06-03T11:37:24.454Z,68.71
2018-06-03T11:39:54.964Z,67.50
2018-06-03T11:42:24.678Z,66.13
2018-06-03T11:44:54.370Z,65.67
2018-06-03T11:47:24.402Z,65.94
2018-06-03T11:49:53.892Z,66.41
2018-06-03T11:52:23.297Z,66.41
2018-06-03T11:54:52.997Z,67.27
2018-06-03T11:57:23.638Z,67.88
2018-06-03T11:59:53.267Z,68.25
2018-06-03T12:02:23.033Z,66.83
2018-06-03T12:04:52.755Z,67.60
2018-06-03T12:07:22.352Z,68.76
2018-06-03T12:09:52.202Z,68.92
2018-06-03T12:12:21.689Z,68.81
2018-06-03T12:14:51.237Z,69.64
2018-06-03T12:17:20.802Z,69.19
2018-06-03T12:19:50.286Z,69.58
2018-06-03T12:22:19.800Z,69.54
2018-06-03T12:24:50.179Z,69.48
2018-06-03T12:27:19.997Z,69.64
2018-06-03T12:29:50.069Z,69.30
2018-06-03T12:32:19.981Z,70.30
2018-06-03T12:34:49.656Z,70.75
2018-06-03T12:37:19.401Z,70.19
2018-06-03T12:39:49.637Z,71.28
2018-06-03T12:42:19.939Z,70.78
2018-06-03T12:44:49.951Z,71.31
2018-06-03T12:47:24.730Z,70.89
2018-06-03T12:49:56.230Z,71.77
2018-06-03T12:52:26.120Z,71.92
2018-06-03T12:54:55.841Z,70.61
2018-06-03T12:57:25.486Z,70.56
2018-06-03T12:59:56.136Z,70.04
2018-06-03T13:02:25.861Z,69.92
2018-06-03T13:04:55.213Z,68.34
2018-06-03T13:07:24.843Z,68.79
2018-06-03T13:09:54.932Z,68.60
2018-06-03T13:12:24.552Z,68.51
2018-06-03T13:14:54.172Z,69.06
2018-06-03T13:17:23.732Z,68.77
2018-06-03T13:19:53.201Z,68.04
2018-06-03T13:22:23.631Z,68.22
2018-06-03T13:24:53.419Z,67.25
2018-06-03T13:27:22.924Z,67.42
2018-06-03T13:29:52.695Z,66.65
2018-06-03T13:32:22.114Z,66.32
2018-06-03T13:34:51.545Z,65.92
2018-06-03T13:37:21.209Z,65.81
2018-06-03T13:39:50.615Z,66.27
2018-06-03T13:42:20.090Z,65.76
2018-06-03T13:44:49.519Z,65.32
2018-06-03T13:47:18.992Z,65.29
2018-06-03T13:49:48.567Z,66.32
2018-06-03T13:52:18.954Z,65.29
2018-06-03T13:54:48.262Z,65.54
2018-06-03T13:57:17.553Z,64.06
2018-06-03T13:59:46.853Z,63.06
2018-06-03T14:02:16.148Z,62.91
2018-06-03T14:04:45.372Z,63.33
2018-06-03T14:07:14.780Z,61.31
2018-06-03T14:09:44.063Z,59.41
2018-06-03T14:12:13.345Z,57.19
2018-06-03T14:14:42.624Z,55.67
2018-06-03T14:17:11.836Z,54.30
2018-06-03T14:19:41.053Z,55.14
2018-06-03T14:22:10.299Z,54.56
2018-06-03T14:24:39.689Z,55.50
2018-06-03T14:27:09.005Z,56.41
2018-06-03T14:29:38.311Z,55.66
2018-06-03T14:32:07.540Z,56.04
2018-06-03T14:34:36.891Z,55.24
2018-06-03T14:37:06.417Z,57.07
2018-06-03T14:39:35.669Z,56.82
2018-06-03T14:42:05.125Z,57.45
2018-06-03T14:44:34.419Z,55.77
2018-06-03T14:47:03.653Z,55.03
2018-06-03T14:49:33.020Z,54.93
2018-06-03T14:52:03.204Z,53.71
2018-06-03T14:54:32.418Z,52.65
2018-06-03T14:57:01.850Z,53.24
2018-06-03T14:59:31.117Z,53.15
2018-06-03T15:02:00.434Z,51.49
2018-06-03T15:04:29.724Z,50.67
2018-06-03T15:06:59.658Z,51.00
2018-06-03T15:09:29.032Z,51.47
2018-06-03T15:11:58.408Z,51.49
2018-06-03T15:14:27.954Z,51.06
2018-06-03T15:16:57.477Z,52.21
2018-06-03T15:19:26.965Z,51.54
2018-06-03T15:21:56.451Z,51.49
2018-06-03T15:24:25.924Z,51.29
2018-06-03T15:26:55.436Z,51.93
2018-06-03T15:29:25.131Z,52.47
2018-06-03T15:31:54.633Z,52.44
2018-06-03T15:34:24.509Z,53.31
2018-06-03T15:36:54.342Z,52.92
2018-06-03T15:39:24.182Z,53.19
2018-06-03T15:41:54.054Z,53.96
2018-06-03T15:44:24.041Z,53.30
2018-06-03T15:46:53.807Z,54.30
2018-06-03T15:49:23.430Z,54.44
2018-06-03T15:51:52.955Z,53.62
2018-06-03T15:54:22.557Z,54.66
2018-06-03T15:56:52.428Z,54.43
2018-06-03T15:59:22.135Z,54.81
2018-06-03T16:01:51.857Z,55.74
2018-06-03T16:04:21.464Z,55.67
2018-06-03T16:06:51.615Z,56.06
2018-06-03T16:09:21.394Z,56.61
2018-06-03T16:11:51.042Z,55.69
2018-06-03T16:14:21.908Z,56.86
2018-06-03T16:16:51.774Z,56.32
2018-06-03T16:19:21.873Z,56.02
2018-06-03T16:21:51.549Z,55.41
2018-06-03T16:24:21.347Z,55.78
2018-06-03T16:26:50.824Z,55.59
2018-06-03T16:29:20.793Z,55.90
2018-06-03T16:31:50.327Z,55.27
2018-06-03T16:34:19.769Z,55.17
2018-06-03T16:36:49.295Z,56.14
2018-06-03T16:39:18.769Z,54.60
2018-06-03T16:41:50.791Z,53.10
2018-06-03T16:44:20.327Z,52.97
2018-06-03T16:46:50.002Z,50.93
2018-06-03T16:49:19.485Z,49.56
2018-06-03T16:51:48.991Z,48.29
2018-06-03T16:54:18.562Z,47.02
2018-06-03T16:56:49.070Z,47.80
2018-06-03T16:59:18.607Z,47.86
2018-06-03T17:01:48.116Z,49.68
2018-06-03T17:04:17.499Z,51.55
2018-06-03T17:06:47.478Z,53.28
2018-06-03T17:09:17.080Z,54.24
2018-06-03T17:11:46.950Z,54.68
2018-06-03T17:14:20.905Z,54.10
2018-06-03T17:16:50.536Z,53.47
2018-06-03T17:19:24.241Z,52.60
2018-06-03T17:21:53.844Z,52.49
2018-06-03T17:24:23.412Z,54.45
2018-06-03T17:26:52.890Z,54.41
2018-06-03T17:29:23.203Z,54.92
2018-06-03T17:31:52.767Z,55.08
2018-06-03T17:34:22.425Z,55.85
2018-06-03T17:36:52.598Z,54.73
2018-06-03T17:39:22.038Z,55.04
2018-06-03T17:41:51.757Z,54.26
2018-06-03T17:44:21.730Z,55.66
2018-06-03T17:46:51.904Z,54.81
2018-06-03T17:49:22.326Z,54.71
2018-06-03T17:51:52.305Z,54.51
2018-06-03T17:54:22.127Z,54.83
2018-06-03T17:56:51.817Z,54.77
2018-06-03T17:59:21.592Z,54.26
2018-06-03T18:01:51.814Z,55.07
2018-06-03T18:04:21.511Z,54.61
2018-06-03T18:06:51.161Z,55.22
2018-06-03T18:09:22.145Z,55.28
2018-06-03T18:11:51.730Z,55.27
2018-06-03T18:14:21.408Z,56.37
2018-06-03T18:16:52.236Z,57.42
2018-06-03T18:19:21.862Z,57.35
2018-06-03T18:21:51.628Z,58.50
2018-06-03T18:24:21.641Z,57.81
2018-06-03T18:26:51.215Z,58.67
2018-06-03T18:29:20.813Z,58.54
2018-06-03T18:31:50.413Z,60.13
2018-06-03T18:34:20.108Z,60.38
2018-06-03T18:36:50.024Z,61.62
2018-06-03T18:39:20.169Z,62.65
2018-06-03T18:41:49.809Z,63.64
2018-06-03T18:44:20.281Z,64.76
2018-06-03T18:46:49.816Z,65.43
2018-06-03T18:49:19.327Z,65.95
2018-06-03T18:51:48.844Z,66.96
2018-06-03T18:54:19.250Z,67.12
2018-06-03T18:56:48.713Z,67.81
2018-06-03T18:59:18.202Z,67.79
2018-06-03T19:01:47.724Z,68.45
2018-06-03T19:04:17.066Z,69.04
2018-06-03T19:06:46.675Z,69.15
2018-06-03T19:09:16.337Z,69.54
2018-06-03T19:11:45.772Z,69.19
2018-06-03T19:14:15.141Z,70.15
2018-06-03T19:16:44.673Z,70.12
2018-06-03T19:19:13.945Z,69.68
2018-06-03T19:21:43.361Z,70.38
2018-06-03T19:24:12.774Z,70.16
2018-06-03T19:26:42.073Z,69.64
2018-06-03T19:29:11.447Z,70.49
2018-06-03T19:31:42.320Z,70.48
2018-06-03T19:34:11.738Z,69.74
2018-06-03T19:36:40.994Z,70.72
2018-06-03T19:39:10.520Z,71.07
2018-06-03T19:41:39.777Z,70.48
2018-06-03T19:44:09.214Z,70.10
2018-06-03T19:46:38.456Z,70.34
2018-06-03T19:49:07.739Z,69.40
2018-06-03T19:51:37.128Z,70.22
2018-06-03T19:54:06.533Z,69.52
2018-06-03T19:56:35.833Z,70.29
2018-06-03T19:59:05.209Z,70.52
2018-06-03T20:01:41.195Z,69.70
2018-06-03T20:04:10.507Z,69.52
2018-06-03T20:06:39.881Z,70.41
2018-06-03T20:09:10.074Z,70.61
2018-06-03T20:11:39.453Z,70.70
2018-06-03T20:14:08.903Z,70.98
2018-06-03T20:16:38.383Z,71.16
2018-06-03T20:19:07.643Z,71.02
2018-06-03T20:21:37.077Z,71.27
2018-06-03T20:24:07.767Z,71.04
2018-06-03T20:26:37.027Z,71.66
2018-06-03T20:29:06.330Z,72.18
2018-06-03T20:31:36.498Z,72.05
2018-06-03T20:34:05.849Z,71.55
2018-06-03T20:36:35.389Z,71.92
2018-06-03T20:39:07.746Z,72.69
2018-06-03T20:41:37.092Z,72.74
2018-06-03T20:44:06.521Z,73.34
2018-06-03T20:46:36.355Z,73.80
2018-06-03T20:49:05.965Z,73.62
2018-06-03T20:51:35.858Z,74.01
2018-06-03T20:54:06.338Z,73.43
2018-06-03T20:56:35.686Z,73.37
2018-06-03T20:59:05.417Z,73.63
2018-06-03T21:01:35.334Z,74.35
2018-06-03T21:04:04.882Z,73.85
2018-06-03T21:06:34.667Z,73.27
2018-06-03T21:09:04.826Z,74.11
2018-06-03T21:11:34.158Z,73.73
2018-06-03T21:14:03.683Z,74.19
2018-06-03T21:16:33.227Z,74.30
2018-06-03T21:19:02.724Z,74.18
2018-06-03T21:21:33.385Z,74.18
2018-06-03T21:24:03.199Z,73.83
2018-06-03T21:26:32.988Z,74.48
2018-06-03T21:29:02.311Z,74.18
2018-06-03T21:31:31.827Z,75.05
2018-06-03T21:34:01.459Z,74.26
2018-06-03T21:36:31.175Z,75.01
2018-06-03T21:39:00.742Z,74.92
2018-06-03T21:41:30.658Z,74.35
2018-06-03T21:44:00.438Z,74.47
2018-06-03T21:46:29.900Z,75.08
2018-06-03T21:48:59.305Z,74.84
2018-06-03T21:51:28.744Z,74.26
2018-06-03T21:53:58.617Z,74.79
2018-06-03T21:56:28.277Z,73.97
2018-06-03T21:58:58.385Z,74.42
2018-06-03T22:01:28.109Z,73.79
2018-06-03T22:03:57.712Z,74.25
2018-06-03T22:06:27.111Z,73.59
2018-06-03T22:08:56.706Z,73.62
2018-06-03T22:11:26.249Z,74.26
2018-06-03T22:13:56.381Z,73.58
2018-06-03T22:16:26.489Z,73.71
2018-06-03T22:18:56.282Z,73.99
2018-06-03T22:21:26.046Z,73.00
2018-06-03T22:23:56.107Z,72.86
2018-06-03T22:26:26.109Z,73.53
2018-06-03T22:28:55.702Z,73.57
2018-06-03T22:31:26.357Z,73.57
2018-06-03T22:33:55.965Z,72.68
2018-06-03T22:36:25.836Z,73.16
2018-06-03T22:38:55.950Z,72.44
2018-06-03T22:41:25.733Z,72.62
2018-06-03T22:43:55.420Z,72.61
2018-06-03T22:46:25.361Z,72.76
2018-06-03T22:48:54.966Z,73.20
2018-06-03T22:51:24.550Z,72.87
2018-06-03T22:53:55.207Z,73.16
2018-06-03T22:56:25.008Z,72.71
2018-06-03T22:58:55.130Z,72.12
2018-06-03T23:01:25.907Z,72.95
2018-06-03T23:03:55.480Z,73.12
2018-06-03T23:06:25.206Z,73.71
2018-06-03T23:08:54.933Z,74.11
2018-06-03T23:11:24.847Z,73.24
2018-06-03T23:13:55.325Z,74.52
2018-06-03T23:16:25.480Z,74.08
2018-06-03T23:18:55.098Z,74.98
2018-06-03T23:21:25.133Z,74.72
2018-06-03T23:23:55.299Z,76.11
2018-06-03T23:26:25.068Z,75.40
2018-06-03T23:28:54.617Z,75.99
2018-06-03T23:31:24.272Z,75.69
2018-06-03T23:33:53.859Z,75.94
2018-06-03T23:36:23.429Z,76.00
2018-06-03T23:38:53.002Z,75.84
2018-06-03T23:41:22.497Z,76.72
2018-06-03T23:43:52.474Z,76.92
2018-06-03T23:46:22.081Z,76.50
2018-06-03T23:48:51.824Z,76.79
2018-06-03T23:51:21.624Z,76.29
2018-06-03T23:53:51.405Z,76.50
2018-06-03T23:56:20.910Z,75.92
2018-06-03T23:58:50.875Z,75.90
